PAVD

Valdez Airport

Airport
ICAO code
PAVD
Summary
ICAO Region
NAM
ICAO Territory
Location

Valdez,

Coordinates
61° 8' 2" N , 146° 14' 54" W
KCC
Airport BS
Bird Strike
Non Avian Wildlife Hazards to Aircraft
Airport CFIT
Altimeter Temperature Error Correction
Metar
PAVD 080556Z 02003KT 1/2SM SN BR BKN008 OVC013 M04/M04 A2955 RMK AO2 SLP004 P0000 60000 T10391039 11039 21050 56022 $

Description

Regional airport serving the town and the port of Valdez, Alaska.

Climatology

Cool continental climate/Subarctic climate (Köppen climate classification Dfc). Despite the present of temperate rainforest, Valdez under the Köppen climate classification has a subarctic. Its winters, though much warmer than most climates of this type, are not sufficiently mild to fit into the oceanic or subpolar oceanic climate category.

Runways

Designator Length Width Surface Rops
6/24 1984 46 ASP No/No

Airport map

Aerial View

SKYbrary Partners:

Safety knowledge contributed by: